Beattie, KS (66406)

7:10 PM CST on March 05, 2015 (GMT -0600)
N0NB | Change Station
CLOSE
Current Station
Personal Weather Station
Location: Bremen, KS
Elevation: 1312 ft
Nearby Weather Stations

Elev 1312 ft 39.91 °N, 96.77 °W | Updated 31 seconds ago

Clear
Clear
29.9 °F
Feels Like 23 °F
N
6.8
Wind Variable Wind from South
Gusts 7.8 mph

Today
High -- | Low -- °F
--% Chance of Precip.
Yesterday
High -- | Low -- °F
Precip. -- in
6:53 AM 6:21 PM
Full, 100% visible
Pressure 30.38 in
Visibility 10.0 miles
Clouds Clear
Windchill 23 °F
Dew Point 17 °F
Humidity 58%
Rainfall in
Snow Depth Not available.
UV 0 out of 12
Pollen 1.60 out of 12
Air Quality Not available.
Flu Activity Not available.
METAR KBIE 060055Z AUTO 16005KT 10SM CLR 00/M13 A3038 RMK AO2 T10051135

More Conditions Fewer Conditions

Pressure 30.38 in
Visibility 10.0 miles
Clouds Clear
Windchill 23 °F
Dew Point 17 °F
Humidity 58%
Rainfall in
Snow Depth Not available.
UV 0 out of 12
Pollen 1.60 out of 12
Air Quality Not available.
Flu Activity Not available.
METAR KBIE 060055Z AUTO 16005KT 10SM CLR 00/M13 A3038 RMK AO2 T10051135

More Conditions Fewer Conditions

10-Day Weather Forecast

Almanac

Astronomy

Mar. 05, 2015 Rise Set
Actual Time
Civil Twilight
Nautical Twilight
Astronomical Twilight
Moon
Length of Visible Light
Length of Day
Tomorrow will be .
, % of the Moon is Illuminated

Today's Extremes

State Highs State Lows

Community

WunderPhotos

Upload Photos

1,803,092 photos uploaded!

WunderBlogs® & News

Nearby

Air Quality

  Air Quality AQ Index Pollutant
Not available.

Snow Depth

Station Depth Elevation

Earthquake Activity

City Distance Mag. Time & Date
Minimum magnitude displayed is 2.5.

Coastal Water Temperatures

Place Temperature

Nearby Weather Stations